Time;durP1;ratioP1;P1;durP2;ratioP2;P2;SDS_P1;SDS_P2;PMS_P1;PMS_P2;Temp;Humidity;BMP_temperature;BMP_pressure;BME280_temperature;BME280_humidity;BME280_pressure;Samples;Min_cycle;Max_cycle;Signal;HPM_P1;HPM_P2
2022/09/22 00:01:12;;;;;;;7.05;5.28;;;;;;;20.77;71.92;100686.03;2088458;28;20547;-78
2022/09/22 00:02:35;;;;;;;7.53;3.30;;;;;;;20.75;71.92;100686.06;2094017;28;20050;-78
2022/09/22 00:03:58;;;;;;;7.40;4.05;;;;;;;20.73;72.04;100679.00;2096336;28;20040;-77
2022/09/22 00:05:22;;;;;;;5.25;3.40;;;;;;;20.74;72.07;100681.66;2096703;28;20485;-78
2022/09/22 00:06:50;;;;;;;8.02;3.22;;;;;;;20.76;72.24;100689.63;2096735;28;20040;-78
2022/09/22 00:08:11;;;;;;;5.30;3.60;;;;;;;20.74;72.18;100686.13;2097015;28;20068;-78
2022/09/22 00:09:34;;;;;;;7.75;3.53;;;;;;;20.75;71.93;100686.06;2096283;28;20049;-78
2022/09/22 00:11:00;;;;;;;5.13;3.33;;;;;;;20.78;71.88;100690.47;2096560;28;20097;-79
2022/09/22 00:12:22;;;;;;;7.40;3.28;;;;;;;20.80;72.01;100694.00;2096950;28;20048;-78
2022/09/22 00:13:46;;;;;;;6.45;4.10;;;;;;;20.83;71.66;100683.19;2079911;28;20041;-78
2022/09/22 00:15:10;;;;;;;7.68;3.85;;;;;;;20.84;71.96;100690.31;2100225;28;20050;-78
2022/09/22 00:16:35;;;;;;;8.68;3.97;;;;;;;20.85;71.81;100684.03;2098865;28;20396;-78
2022/09/22 00:17:58;;;;;;;6.45;3.40;;;;;;;20.87;72.00;100685.72;2096668;28;20086;-78
2022/09/22 00:19:22;;;;;;;9.07;3.38;;;;;;;20.92;71.95;100689.19;2095985;28;20135;-78
2022/09/22 00:20:43;;;;;;;7.20;3.75;;;;;;;20.93;71.92;100690.94;2096514;28;20056;-77
2022/09/22 00:22:08;;;;;;;5.80;3.50;;;;;;;20.96;71.84;100689.97;2096214;28;20520;-77
2022/09/22 00:23:30;;;;;;;6.82;4.00;;;;;;;20.97;71.89;100686.34;2104668;28;20437;-78
2022/09/22 00:24:53;;;;;;;7.45;3.13;;;;;;;20.97;71.86;100687.25;2098854;28;20053;-78
2022/09/22 00:26:16;;;;;;;5.45;3.45;;;;;;;20.99;71.80;100692.56;2104824;28;20040;-77
2022/09/22 00:27:39;;;;;;;5.65;3.30;;;;;;;20.99;71.67;100693.47;2090553;28;20083;-77
2022/09/22 00:29:03;;;;;;;5.70;3.60;;;;;;;21.00;71.69;100692.50;2093528;28;20386;-77
2022/09/22 00:30:25;;;;;;;8.80;4.72;;;;;;;20.97;71.54;100689.94;2104860;28;20155;-77
2022/09/22 00:31:47;;;;;;;7.43;3.45;;;;;;;20.96;71.56;100682.78;2090699;28;20124;-77
2022/09/22 00:33:10;;;;;;;6.28;3.03;;;;;;;20.95;71.60;100688.19;2093543;28;20464;-77
2022/09/22 00:34:32;;;;;;;6.10;3.63;;;;;;;20.88;71.58;100675.88;2096433;28;20064;-77
2022/09/22 00:35:59;;;;;;;7.55;3.58;;;;;;;20.85;71.79;100671.50;2087985;28;20056;-78
2022/09/22 00:37:23;;;;;;;7.85;3.30;;;;;;;20.83;71.93;100681.38;2094767;28;20051;-78
2022/09/22 00:38:49;;;;;;;5.97;2.90;;;;;;;20.81;71.97;100680.53;2088183;28;20076;-78
2022/09/22 00:40:10;;;;;;;5.90;3.50;;;;;;;20.80;71.73;100677.91;2094597;28;20076;-77
2022/09/22 00:41:36;;;;;;;9.13;3.35;;;;;;;20.80;71.76;100672.53;2087978;28;20049;-78
2022/09/22 00:43:12;;;;;;;8.50;3.70;;;;;;;20.78;71.79;100669.00;2096590;28;20522;-77
2022/09/22 00:44:40;;;;;;;6.00;3.10;;;;;;;20.76;71.83;100662.78;2098139;28;20129;-77
2022/09/22 00:46:07;;;;;;;6.22;2.90;;;;;;;20.75;72.00;100669.09;2104767;28;20044;-77
2022/09/22 00:47:34;;;;;;;6.93;3.80;;;;;;;20.75;71.98;100663.72;2098605;28;20453;-76
2022/09/22 00:49:02;;;;;;;6.55;2.90;;;;;;;20.74;72.10;100656.63;2088496;28;20504;-77
2022/09/22 00:50:25;;;;;;;7.18;3.30;;;;;;;20.74;72.20;100651.25;2094819;28;20056;-78
2022/09/22 00:51:47;;;;;;;5.55;2.88;;;;;;;20.75;72.17;100661.03;2087919;28;20045;-78
2022/09/22 00:53:15;;;;;;;9.07;3.20;;;;;;;20.77;72.18;100665.44;2093593;28;20048;-77
2022/09/22 00:54:38;;;;;;;5.97;2.97;;;;;;;20.79;72.25;100666.28;2096873;28;20044;-77
2022/09/22 00:56:06;;;;;;;9.90;3.90;;;;;;;20.84;72.13;100667.03;2096160;28;20048;-76
2022/09/22 00:57:30;;;;;;;8.85;3.20;;;;;;;20.89;72.05;100656.16;2096799;28;20077;-77
2022/09/22 00:58:58;;;;;;;19.60;3.58;;;;;;;20.95;71.88;100664.91;2104713;28;20048;-77
2022/09/22 01:00:19;;;;;;;9.20;2.80;;;;;;;20.98;71.67;100658.59;2098732;28;20418;-77
2022/09/22 01:01:43;;;;;;;7.90;3.03;;;;;;;21.02;71.51;100652.19;2096119;28;20045;-77
2022/09/22 01:03:10;;;;;;;7.28;2.58;;;;;;;21.05;71.22;100650.31;2096154;28;20070;-77
2022/09/22 01:04:31;;;;;;;5.70;2.90;;;;;;;21.07;71.13;100652.94;2104911;28;20063;-77
2022/09/22 01:05:57;;;;;;;5.05;2.78;;;;;;;21.10;71.10;100647.50;2098673;28;20044;-77
2022/09/22 01:07:20;;;;;;;7.35;3.00;;;;;;;21.12;70.89;100653.72;2096438;28;20095;-77
2022/09/22 01:08:46;;;;;;;4.28;2.70;;;;;;;21.16;70.82;100651.84;2096044;28;20048;-78
2022/09/22 01:10:10;;;;;;;7.32;2.97;;;;;;;21.18;70.57;100656.25;2087906;28;20077;-77
2022/09/22 01:11:34;;;;;;;6.55;2.75;;;;;;;21.20;70.35;100659.75;2094310;28;20039;-77
2022/09/22 01:13:03;;;;;;;4.75;2.75;;;;;;;21.21;70.32;100661.50;2096312;28;20143;-77
2022/09/22 01:14:39;;;;;;;7.47;3.30;;;;;;;21.24;70.50;100661.44;2105083;28;20040;-77
2022/09/22 01:16:32;;;;;;;4.30;2.80;;;;;;;21.25;70.26;100665.00;2098664;28;20044;-77
2022/09/22 01:18:06;;;;;;;6.43;3.10;;;;;;;21.27;70.39;100668.50;2098608;28;20071;-77
2022/09/22 01:20:17;;;;;;;4.43;2.50;;;;;;;21.27;70.29;100674.75;2105536;28;20048;-77
2022/09/22 01:21:48;;;;;;;3.85;2.47;;;;;;;21.27;70.06;100671.19;2098528;28;20036;-77
2022/09/22 01:23:37;;;;;;;7.60;2.85;;;;;;;21.25;70.15;100671.25;2097079;28;20041;-77
2022/09/22 01:25:19;;;;;;;5.65;2.72;;;;;;;21.27;70.00;100668.50;2085669;28;20107;-77
2022/09/22 01:26:48;;;;;;;;;;;;;;;21.25;70.27;100675.75;2099018;28;20068;-77
2022/09/22 01:28:32;;;;;;;6.35;3.03;;;;;;;21.29;70.25;100675.59;2096843;28;19924;-76
2022/09/22 01:30:30;;;;;;;7.60;3.20;;;;;;;21.33;69.99;100679.09;2098558;28;20135;-77
2022/09/22 01:32:01;;;;;;;5.35;2.60;;;;;;;21.34;69.79;100675.44;2098498;28;20095;-77
2022/09/22 01:33:34;;;;;;;6.47;2.70;;;;;;;21.39;69.66;100678.91;2096979;28;20048;-77
2022/09/22 01:35:01;;;;;;;5.72;2.65;;;;;;;21.40;69.48;100678.84;2097252;28;20584;-78
2022/09/22 01:36:28;;;;;;;6.70;3.00;;;;;;;21.43;69.39;100672.50;2098520;28;20049;-77
2022/09/22 01:38:01;;;;;;;4.50;3.10;;;;;;;21.46;69.23;100672.41;2090221;28;20074;-77
2022/09/22 01:39:30;;;;;;;6.95;2.80;;;;;;;21.50;69.14;100678.56;2087931;28;20048;-77
2022/09/22 01:41:00;;;;;;;5.90;3.10;;;;;;;21.51;69.01;100672.28;2095132;28;20037;-78
2022/09/22 01:42:31;;;;;;;6.35;2.70;;;;;;;21.51;68.82;100673.16;2097401;28;20044;-77
2022/09/22 01:43:57;;;;;;;5.82;2.75;;;;;;;21.53;68.79;100676.66;2088416;28;20047;-77
2022/09/22 01:45:23;;;;;;;5.93;2.75;;;;;;;21.57;68.55;100680.13;2085907;28;20103;-77
2022/09/22 01:46:54;;;;;;;10.10;3.17;;;;;;;21.60;68.53;100678.22;2094327;28;20432;-76
2022/09/22 01:48:23;;;;;;;8.38;2.60;;;;;;;21.63;68.51;100680.81;2096830;28;20044;-77
2022/09/22 01:49:51;;;;;;;9.15;2.85;;;;;;;21.63;68.51;100677.25;2096581;28;20041;-77
2022/09/22 01:51:18;;;;;;;4.82;2.90;;;;;;;21.64;68.41;100685.28;2104735;28;20074;-77
2022/09/22 01:52:41;;;;;;;8.23;2.88;;;;;;;21.67;68.28;100684.28;2098207;28;20089;-77
2022/09/22 01:54:12;;;;;;;5.53;2.72;;;;;;;21.67;68.10;100684.28;2095761;28;20086;-78
2022/09/22 01:55:39;;;;;;;5.80;3.33;;;;;;;21.66;68.14;100688.78;2097071;28;20045;-76
2022/09/22 01:57:10;;;;;;;6.72;3.20;;;;;;;21.65;68.19;100686.16;2087893;28;20151;-77
2022/09/22 01:58:35;;;;;;;5.57;2.50;;;;;;;21.65;68.22;100689.72;2094401;28;20056;-77
2022/09/22 02:00:03;;;;;;;10.70;2.67;;;;;;;21.66;68.10;100679.88;2096211;28;20061;-77
2022/09/22 02:01:39;;;;;;;7.93;2.50;;;;;;;21.64;68.29;100679.91;2089292;28;20128;-77
2022/09/22 02:03:06;;;;;;;5.43;2.63;;;;;;;21.64;68.11;100684.41;2095632;28;20535;-76
2022/09/22 02:04:37;;;;;;;4.20;2.38;;;;;;;21.62;67.90;100686.25;2104338;28;20040;-77
2022/09/22 02:06:05;;;;;;;7.63;2.97;;;;;;;21.62;67.93;100681.75;2098268;28;20062;-76
2022/09/22 02:07:32;;;;;;;5.20;2.88;;;;;;;21.64;67.92;100690.66;2088102;28;20045;-77
2022/09/22 02:09:00;;;;;;;6.68;2.50;;;;;;;21.65;68.03;100680.78;2094296;28;20511;-77
2022/09/22 02:10:29;;;;;;;4.53;2.42;;;;;;;21.66;68.09;100683.41;2096314;28;20050;-77
2022/09/22 02:11:52;;;;;;;4.40;2.20;;;;;;;21.64;68.20;100677.22;2088184;28;20373;-77
2022/09/22 02:13:15;;;;;;;6.20;2.65;;;;;;;21.66;67.99;100671.81;2102105;28;20036;-77
2022/09/22 02:14:36;;;;;;;6.55;3.05;;;;;;;21.67;67.92;100678.91;2098197;28;20389;-77
2022/09/22 02:16:02;;;;;;;5.80;3.42;;;;;;;21.68;67.88;100680.69;2103891;28;20052;-76
2022/09/22 02:17:25;;;;;;;8.20;2.75;;;;;;;21.69;67.76;100677.06;2089868;28;20469;-77
2022/09/22 02:18:50;;;;;;;5.20;2.60;;;;;;;21.69;67.95;100677.06;2093410;28;20366;-77
2022/09/22 02:20:15;;;;;;;7.93;2.97;;;;;;;21.68;67.85;100675.31;2095986;28;20597;-78
2022/09/22 02:21:40;;;;;;;5.07;2.85;;;;;;;21.66;68.04;100682.56;2095663;28;20414;-77
2022/09/22 02:23:03;;;;;;;5.57;2.50;;;;;;;21.61;68.10;100682.66;2104220;28;20545;-77
2022/09/22 02:24:32;;;;;;;7.32;3.63;;;;;;;21.61;68.29;100679.09;2073155;28;20048;-77
2022/09/22 02:25:56;;;;;;;6.82;2.65;;;;;;;21.58;68.28;100679.22;2091381;28;20106;-77
2022/09/22 02:27:25;;;;;;;6.00;2.40;;;;;;;21.58;68.22;100668.47;2095519;28;20577;-77
2022/09/22 02:28:47;;;;;;;7.32;3.05;;;;;;;21.55;68.39;100669.44;2088084;28;20041;-77
2022/09/22 02:30:13;;;;;;;4.78;2.90;;;;;;;21.53;68.36;100678.47;2100923;28;20051;-77
2022/09/22 02:31:36;;;;;;;6.63;2.55;;;;;;;21.50;68.67;100681.25;2097916;28;20080;-77
2022/09/22 02:33:01;;;;;;;6.97;3.00;;;;;;;21.46;68.74;100686.69;2095635;28;20250;-77
2022/09/22 02:34:23;;;;;;;5.68;2.67;;;;;;;21.45;68.94;100682.28;2087402;28;20139;-77
2022/09/22 02:35:53;;;;;;;8.27;3.15;;;;;;;21.43;68.99;100685.94;2093087;28;20079;-77
2022/09/22 02:37:23;;;;;;;5.65;2.90;;;;;;;21.38;68.99;100690.56;2096269;28;20041;-77
2022/09/22 02:38:51;;;;;;;6.22;3.10;;;;;;;21.35;69.10;100691.53;2096284;28;20085;-77
2022/09/22 02:40:21;;;;;;;3.90;2.63;;;;;;;21.34;68.99;100689.75;2096260;28;20402;-77
2022/09/22 02:42:00;;;;;;;5.63;2.97;;;;;;;21.33;68.88;100684.47;2088072;28;20045;-77
2022/09/22 02:43:29;;;;;;;3.53;2.70;;;;;;;21.32;68.89;100686.25;2097345;28;20044;-77
2022/09/22 02:44:57;;;;;;;6.40;2.70;;;;;;;21.29;68.88;100686.34;2087750;28;20082;-77
2022/09/22 02:46:26;;;;;;;3.78;2.70;;;;;;;21.33;68.70;100685.31;2094340;28;20063;-77
2022/09/22 02:47:51;;;;;;;6.53;2.45;;;;;;;21.35;68.70;100688.84;2096143;28;20040;-77
2022/09/22 02:49:18;;;;;;;7.00;2.70;;;;;;;21.40;68.43;100692.25;2095804;28;20052;-77
2022/09/22 02:50:41;;;;;;;6.57;2.63;;;;;;;21.42;68.37;100690.41;2095900;28;20445;-77
2022/09/22 02:52:13;;;;;;;3.63;2.30;;;;;;;21.43;68.21;100689.50;2095506;28;20048;-78
2022/09/22 02:53:37;;;;;;;6.75;2.70;;;;;;;21.41;68.38;100694.03;2088232;28;20033;-77
2022/09/22 02:54:58;;;;;;;5.95;2.70;;;;;;;21.44;68.51;100691.25;2095511;28;20052;-77
2022/09/22 02:56:20;;;;;;;5.10;2.78;;;;;;;21.45;68.40;100695.72;2095256;28;20078;-77
2022/09/22 02:57:43;;;;;;;5.18;3.08;;;;;;;21.46;68.52;100697.44;2095348;28;20059;-77
2022/09/22 02:59:05;;;;;;;5.88;2.50;;;;;;;21.45;68.48;100701.09;2097898;28;20052;-77
2022/09/22 03:00:28;;;;;;;6.72;2.75;;;;;;;21.42;68.62;100706.53;2103672;28;20068;-77
2022/09/22 03:01:50;;;;;;;7.82;2.78;;;;;;;21.42;68.65;100711.03;2097970;28;20049;-76
2022/09/22 03:03:13;;;;;;;5.45;3.13;;;;;;;21.46;68.58;100708.19;2095293;28;20048;-77
2022/09/22 03:04:36;;;;;;;4.97;2.80;;;;;;;21.49;68.51;100707.22;2095357;28;20361;-77
2022/09/22 03:05:58;;;;;;;6.70;2.67;;;;;;;21.52;68.26;100706.28;2095295;28;20543;-77
2022/09/22 03:07:21;;;;;;;6.72;2.70;;;;;;;21.51;68.16;100705.38;2095317;28;20078;-77
2022/09/22 03:08:44;;;;;;;4.90;3.10;;;;;;;21.51;68.31;100710.75;2095198;28;20087;-78
2022/09/22 03:10:09;;;;;;;8.02;2.78;;;;;;;21.52;68.15;100706.28;2096482;28;20097;-77
2022/09/22 03:11:30;;;;;;;4.85;2.70;;;;;;;21.51;67.98;100707.19;2097054;28;20048;-78
2022/09/22 03:12:56;;;;;;;7.20;3.10;;;;;;;21.51;67.98;100709.88;2097058;28;20147;-77
2022/09/22 03:14:18;;;;;;;7.13;3.17;;;;;;;21.51;68.04;100709.88;2097141;28;20047;-77
2022/09/22 03:15:40;;;;;;;5.47;2.92;;;;;;;21.51;67.86;100704.50;2096908;28;20041;-77
2022/09/22 03:17:03;;;;;;;5.68;2.90;;;;;;;21.50;68.00;100703.63;2088600;28;20044;-77
2022/09/22 03:18:25;;;;;;;4.30;2.75;;;;;;;21.51;67.98;100712.56;2102836;28;20044;-77
2022/09/22 03:19:48;;;;;;;8.57;3.08;;;;;;;21.53;67.94;100714.25;2091368;28;20049;-77
2022/09/22 03:21:10;;;;;;;5.82;2.83;;;;;;;21.53;67.97;100713.41;2094204;28;20056;-77
2022/09/22 03:22:34;;;;;;;6.32;3.35;;;;;;;21.55;68.04;100717.78;2096784;28;20041;-77
2022/09/22 03:23:56;;;;;;;7.20;2.97;;;;;;;21.56;68.04;100724.03;2096815;28;20032;-77
2022/09/22 03:25:18;;;;;;;5.50;2.60;;;;;;;21.57;68.17;100729.38;2088611;28;20136;-76
2022/09/22 03:26:40;;;;;;;9.57;3.20;;;;;;;21.59;68.33;100729.34;2085935;28;20075;-77
2022/09/22 03:28:03;;;;;;;6.43;2.95;;;;;;;21.60;68.46;100726.59;2085758;28;20053;-77
2022/09/22 03:29:26;;;;;;;9.30;3.30;;;;;;;21.61;68.62;100724.78;2094302;28;20118;-77
2022/09/22 03:30:48;;;;;;;7.70;3.08;;;;;;;21.62;68.55;100724.75;2096658;28;20041;-77
2022/09/22 03:32:11;;;;;;;9.10;3.05;;;;;;;21.63;68.69;100721.13;2096867;28;20044;-77
2022/09/22 03:33:33;;;;;;;10.95;3.20;;;;;;;21.60;69.05;100720.31;2088395;28;20045;-77
2022/09/22 03:34:55;;;;;;;7.40;3.17;;;;;;;21.56;69.12;100719.56;2085430;28;20041;-77
2022/09/22 03:36:18;;;;;;;10.65;3.03;;;;;;;21.51;69.23;100720.63;2096778;28;20099;-76
2022/09/22 03:37:41;;;;;;;5.68;2.90;;;;;;;21.50;69.40;100716.19;2098229;28;20037;-77
2022/09/22 03:39:04;;;;;;;8.85;2.83;;;;;;;21.44;69.36;100720.81;2098504;28;20040;-77
2022/09/22 03:40:26;;;;;;;6.53;3.10;;;;;;;21.38;69.60;100720.13;2099391;28;20044;-77
2022/09/22 03:41:49;;;;;;;14.20;3.28;;;;;;;21.37;69.46;100718.34;2099349;28;20139;-77
2022/09/22 03:43:10;;;;;;;5.85;2.97;;;;;;;21.35;69.52;100713.00;2096829;28;20097;-77
2022/09/22 03:44:33;;;;;;;8.32;3.28;;;;;;;21.34;69.40;100718.41;2096524;28;20094;-77
2022/09/22 03:45:58;;;;;;;8.38;3.03;;;;;;;21.34;69.45;100718.41;2088494;28;20573;-77
2022/09/22 03:47:21;;;;;;;6.15;2.67;;;;;;;21.32;69.39;100715.81;2095078;28;20143;-76
2022/09/22 03:48:42;;;;;;;9.57;3.40;;;;;;;21.32;69.43;100717.59;2096392;28;20466;-77
2022/09/22 03:50:05;;;;;;;8.15;3.70;;;;;;;21.30;69.35;100719.44;2096645;28;20143;-76
2022/09/22 03:51:28;;;;;;;8.48;3.42;;;;;;;21.28;69.43;100716.81;2096637;28;20036;-77
2022/09/22 03:52:58;;;;;;;5.45;2.67;;;;;;;21.27;69.31;100711.47;2096815;28;20211;-77
2022/09/22 03:54:19;;;;;;;7.07;3.55;;;;;;;21.26;69.34;100709.72;2097308;28;20169;-77
2022/09/22 03:55:42;;;;;;;5.55;2.90;;;;;;;21.26;69.33;100713.31;2104987;28;20052;-77
2022/09/22 03:57:04;;;;;;;7.03;2.85;;;;;;;21.25;69.19;100711.53;2099438;28;20045;-77
2022/09/22 03:58:26;;;;;;;9.38;3.55;;;;;;;21.26;69.17;100713.31;2096711;28;20044;-76
2022/09/22 03:59:49;;;;;;;9.30;3.63;;;;;;;21.26;69.15;100721.34;2096533;28;20077;-77
2022/09/22 04:01:12;;;;;;;6.45;3.25;;;;;;;21.26;68.89;100715.09;2099286;28;20113;-77
2022/09/22 04:02:33;;;;;;;9.95;3.00;;;;;;;21.26;68.84;100718.69;2088285;28;20105;-76
2022/09/22 04:03:56;;;;;;;10.05;3.00;;;;;;;21.25;68.88;100722.28;2093505;28;20127;-77
2022/09/22 04:05:17;;;;;;;7.93;3.10;;;;;;;21.26;68.71;100724.03;2104970;28;20085;-76
2022/09/22 04:06:41;;;;;;;12.18;3.17;;;;;;;21.27;68.80;100730.25;2099150;28;20530;-76
2022/09/22 04:08:04;;;;;;;7.75;3.20;;;;;;;21.28;68.61;100727.53;2096515;28;20064;-76
2022/09/22 04:09:26;;;;;;;8.93;2.90;;;;;;;21.28;68.70;100735.59;2096361;28;20083;-76
2022/09/22 04:10:49;;;;;;;10.43;2.92;;;;;;;21.29;68.57;100723.06;2096572;28;20496;-77
2022/09/22 04:12:10;;;;;;;6.63;3.33;;;;;;;21.30;68.34;100724.81;2096588;28;20080;-76
2022/09/22 04:13:34;;;;;;;6.10;2.90;;;;;;;21.30;68.37;100727.50;2096582;28;20083;-76
2022/09/22 04:14:56;;;;;;;6.82;2.90;;;;;;;21.31;68.25;100729.28;2105017;28;20052;-77
2022/09/22 04:16:19;;;;;;;7.68;3.35;;;;;;;21.30;68.17;100728.38;2099213;28;20044;-76
2022/09/22 04:17:41;;;;;;;7.57;3.35;;;;;;;21.28;68.06;100729.34;2097633;28;20036;-77
2022/09/22 04:19:04;;;;;;;17.33;4.65;;;;;;;21.27;68.02;100723.09;2101625;28;20044;-76
2022/09/22 04:20:26;;;;;;;7.63;2.97;;;;;;;21.28;67.97;100729.34;2107330;28;20138;-77
2022/09/22 04:21:49;;;;;;;7.68;2.72;;;;;;;21.27;68.17;100731.16;2098095;28;20075;-76
2022/09/22 04:23:15;;;;;;;11.05;2.97;;;;;;;21.28;67.99;100730.22;2096401;28;20056;-76
2022/09/22 04:24:38;;;;;;;7.10;2.67;;;;;;;21.29;68.00;100734.69;2096592;28;20045;-77
2022/09/22 04:26:01;;;;;;;6.50;2.78;;;;;;;21.30;67.99;100731.06;2104757;28;20501;-77
2022/09/22 04:27:23;;;;;;;10.68;3.00;;;;;;;21.30;67.94;100728.38;2098778;28;20354;-77
2022/09/22 04:28:45;;;;;;;10.43;3.13;;;;;;;21.31;67.91;100735.53;2096200;28;20056;-77
2022/09/22 04:30:08;;;;;;;9.45;3.05;;;;;;;21.37;67.94;100738.03;2104485;28;20068;-76
2022/09/22 04:31:31;;;;;;;7.07;2.92;;;;;;;21.45;67.87;100737.81;2090653;28;20358;-76
2022/09/22 04:32:53;;;;;;;5.45;2.78;;;;;;;21.53;67.63;100734.91;2093651;28;20062;-77
2022/09/22 04:34:16;;;;;;;6.05;2.17;;;;;;;21.59;67.32;100738.28;2087868;28;20080;-76
2022/09/22 04:35:37;;;;;;;6.75;2.80;;;;;;;21.63;67.12;100745.31;2093685;28;20060;-76
2022/09/22 04:37:00;;;;;;;8.48;2.83;;;;;;;21.65;66.90;100753.34;2087958;28;20096;-76
2022/09/22 04:38:24;;;;;;;5.07;2.00;;;;;;;21.62;66.51;100748.94;2087978;28;20561;-77
2022/09/22 04:39:47;;;;;;;9.00;2.17;;;;;;;21.62;66.50;100753.41;2093944;28;20044;-77
2022/09/22 04:41:09;;;;;;;7.40;2.70;;;;;;;21.64;66.34;100754.25;2087934;28;20049;-77
2022/09/22 04:42:31;;;;;;;6.18;2.40;;;;;;;21.69;66.33;100752.31;2093561;28;20139;-76
2022/09/22 04:43:53;;;;;;;8.63;2.65;;;;;;;21.70;66.09;100754.97;2079683;28;20051;-76
2022/09/22 04:45:16;;;;;;;9.88;3.35;;;;;;;21.72;66.06;100745.06;2090988;28;20392;-76
2022/09/22 04:46:37;;;;;;;8.43;2.60;;;;;;;21.74;65.80;100747.66;2088052;28;20052;-76
2022/09/22 04:48:00;;;;;;;10.70;2.53;;;;;;;21.72;65.45;100757.59;2093290;28;20036;-77
2022/09/22 04:49:23;;;;;;;10.75;2.45;;;;;;;21.73;65.40;100751.28;2096063;28;20106;-76
2022/09/22 04:50:45;;;;;;;5.55;2.00;;;;;;;21.75;65.22;100752.13;2104652;28;20139;-76
2022/09/22 04:52:08;;;;;;;7.35;2.10;;;;;;;21.78;64.86;100758.31;2090482;28;20044;-76
2022/09/22 04:53:33;;;;;;;9.75;2.30;;;;;;;21.83;64.76;100760.84;2096401;28;20045;-77
2022/09/22 04:54:55;;;;;;;4.70;2.10;;;;;;;21.86;64.41;100752.66;2104676;28;20047;-76
2022/09/22 04:56:18;;;;;;;4.95;1.98;;;;;;;21.86;64.13;100752.66;2098667;28;20131;-76
2022/09/22 04:57:39;;;;;;;8.18;2.28;;;;;;;21.88;64.21;100751.69;2096072;28;20166;-76
2022/09/22 04:59:02;;;;;;;6.53;1.92;;;;;;;21.95;64.07;100760.44;2095820;28;20052;-76
2022/09/22 05:00:26;;;;;;;3.13;2.05;;;;;;;21.97;63.88;100757.75;2079740;28;20072;-76
2022/09/22 05:01:48;;;;;;;8.00;2.20;;;;;;;21.98;63.74;100757.72;2091498;28;20040;-76
2022/09/22 05:03:12;;;;;;;9.48;2.10;;;;;;;21.99;63.50;100755.91;2104466;28;20489;-76
2022/09/22 05:04:35;;;;;;;8.25;2.53;;;;;;;21.98;63.40;100755.03;2098741;28;20047;-75
2022/09/22 05:05:57;;;;;;;6.75;2.00;;;;;;;21.99;63.33;100756.75;2087802;28;20511;-76
2022/09/22 05:07:20;;;;;;;11.95;2.30;;;;;;;22.00;63.20;100754.94;2096011;28;20503;-76
2022/09/22 05:08:44;;;;;;;7.18;2.00;;;;;;;21.99;63.11;100763.97;2098538;28;20097;-76
2022/09/22 05:10:06;;;;;;;7.07;1.65;;;;;;;21.97;63.04;100758.63;2098664;28;20377;-76
2022/09/22 05:11:29;;;;;;;7.47;1.60;;;;;;;21.95;62.93;100755.06;2087670;28;20148;-77
2022/09/22 05:12:52;;;;;;;8.60;1.70;;;;;;;21.94;62.74;100760.50;2093395;28;20052;-76
2022/09/22 05:14:16;;;;;;;6.95;1.80;;;;;;;21.92;62.51;100759.69;2087703;28;20049;-76
2022/09/22 05:15:38;;;;;;;4.68;1.75;;;;;;;21.93;62.29;100761.41;2102037;28;20082;-76
2022/09/22 05:17:01;;;;;;;3.15;1.40;;;;;;;21.95;62.12;100765.81;2098713;28;20056;-76
2022/09/22 05:18:23;;;;;;;5.22;1.70;;;;;;;21.99;61.85;100763.97;2096033;28;20044;-76
2022/09/22 05:19:46;;;;;;;7.00;1.70;;;;;;;22.03;61.53;100771.00;2095877;28;20044;-76
2022/09/22 05:21:09;;;;;;;5.07;1.90;;;;;;;22.04;61.28;100765.59;2096023;28;20040;-77
2022/09/22 05:22:30;;;;;;;5.25;1.60;;;;;;;22.08;61.13;100766.34;2087561;28;20149;-76
2022/09/22 05:23:55;;;;;;;5.07;2.03;;;;;;;22.13;60.93;100781.41;2095776;28;20585;-77
2022/09/22 05:25:19;;;;;;;9.20;1.88;;;;;;;22.22;60.62;100774.88;2104285;28;20039;-76
2022/09/22 05:26:41;;;;;;;5.45;2.08;;;;;;;22.24;60.60;100770.34;2098457;28;20045;-76
2022/09/22 05:28:03;;;;;;;9.85;1.90;;;;;;;22.28;60.64;100769.28;2087761;28;20049;-77
2022/09/22 05:29:26;;;;;;;7.88;1.95;;;;;;;22.34;60.44;100768.19;2084639;28;20048;-76
2022/09/22 05:30:51;;;;;;;6.75;1.77;;;;;;;22.40;60.23;100759.94;2093505;28;20037;-76
2022/09/22 05:32:14;;;;;;;6.28;1.58;;;;;;;22.45;60.17;100761.53;2096160;28;20083;-77
2022/09/22 05:33:36;;;;;;;4.72;1.58;;;;;;;22.51;60.04;100763.16;2098151;28;20033;-76
2022/09/22 05:34:57;;;;;;;4.72;1.30;;;;;;;22.56;59.72;100763.88;2104124;28;20067;-77
2022/09/22 05:36:20;;;;;;;7.38;1.73;;;;;;;22.59;59.61;100764.66;2098308;28;20040;-77
2022/09/22 05:37:44;;;;;;;5.97;2.95;;;;;;;22.63;59.55;100765.44;2095992;28;20119;-76
2022/09/22 05:39:08;;;;;;;6.18;1.52;;;;;;;22.67;59.65;100767.09;2104285;28;20039;-77
2022/09/22 05:40:31;;;;;;;10.52;2.72;;;;;;;22.73;59.53;100766.91;2098372;28;20510;-76
2022/09/22 05:41:53;;;;;;;6.88;1.88;;;;;;;22.77;59.45;100768.56;2095705;28;20052;-77
2022/09/22 05:43:16;;;;;;;4.65;1.27;;;;;;;22.82;59.27;100768.41;2095633;28;20139;-76
2022/09/22 05:44:39;;;;;;;4.47;1.60;;;;;;;22.85;59.27;100774.56;2087657;28;20074;-77
2022/09/22 05:46:02;;;;;;;4.25;1.50;;;;;;;22.82;59.27;100768.41;2084911;28;20117;-76
2022/09/22 05:47:25;;;;;;;8.15;2.00;;;;;;;22.69;59.29;100775.13;2084960;28;20055;-77
2022/09/22 05:48:48;;;;;;;3.15;1.20;;;;;;;22.57;59.87;100776.41;2093049;28;20528;-77
2022/09/22 05:50:10;;;;;;;2.60;1.30;;;;;;;22.54;60.36;100781.88;2087330;28;20041;-77
2022/09/22 05:51:33;;;;;;;4.38;1.58;;;;;;;22.58;60.35;100784.41;2084971;28;20053;-77
2022/09/22 05:53:04;;;;;;;2.92;1.30;;;;;;;22.67;60.36;100780.53;2093219;28;20044;-77
2022/09/22 05:54:28;;;;;;;6.57;1.48;;;;;;;22.75;60.19;100791.09;2096542;28;20056;-77
2022/09/22 05:55:51;;;;;;;7.47;1.38;;;;;;;22.82;60.05;100785.44;2087332;28;20489;-77
2022/09/22 05:57:15;;;;;;;5.43;1.27;;;;;;;22.84;59.98;100782.72;2084861;28;20057;-77
2022/09/22 05:58:38;;;;;;;2.22;1.20;;;;;;;22.88;60.02;100795.13;2095789;28;20037;-76
2022/09/22 05:59:59;;;;;;;7.00;2.08;;;;;;;22.95;59.89;100788.59;2095731;28;20126;-76
2022/09/22 06:01:21;;;;;;;5.65;1.63;;;;;;;23.05;59.97;100790.00;2103848;28;20040;-77
2022/09/22 06:02:45;;;;;;;9.40;3.58;;;;;;;23.15;59.74;100793.28;2090005;28;20064;-77
2022/09/22 06:04:07;;;;;;;2.35;1.23;;;;;;;23.19;59.67;100792.22;2095687;28;20377;-76
2022/09/22 06:05:30;;;;;;;7.13;1.40;;;;;;;23.19;59.56;100798.50;2095430;28;20053;-77
2022/09/22 06:06:53;;;;;;;5.82;2.35;;;;;;;23.19;59.36;100789.53;2087328;28;20186;-77
2022/09/22 06:08:15;;;;;;;4.20;1.73;;;;;;;23.20;59.53;100793.97;2101527;28;20048;-77
2022/09/22 06:09:39;;;;;;;6.95;1.38;;;;;;;23.25;59.21;100800.97;2089859;28;20029;-77
2022/09/22 06:11:02;;;;;;;4.93;1.25;;;;;;;23.21;59.20;100798.44;2101429;28;20051;-77
2022/09/22 06:12:23;;;;;;;3.95;1.67;;;;;;;23.23;59.31;100802.84;2098119;28;20625;-77
2022/09/22 06:13:47;;;;;;;5.30;1.60;;;;;;;23.26;59.64;100794.63;2095351;28;20040;-77
2022/09/22 06:15:10;;;;;;;7.03;1.60;;;;;;;23.23;59.60;100797.47;2104073;28;20064;-77
2022/09/22 06:16:33;;;;;;;4.15;1.58;;;;;;;23.23;59.49;100804.66;2098147;28;20428;-77
2022/09/22 06:17:54;;;;;;;5.18;1.38;;;;;;;23.19;59.41;100806.56;2095480;28;20457;-76
2022/09/22 06:19:17;;;;;;;3.22;1.48;;;;;;;23.16;59.49;100811.19;2086734;28;20108;-76
2022/09/22 06:20:41;;;;;;;6.75;1.33;;;;;;;23.11;59.52;100810.47;2084681;28;20136;-76
2022/09/22 06:22:02;;;;;;;5.70;1.48;;;;;;;23.08;59.49;100813.28;2093013;28;20432;-76
2022/09/22 06:23:25;;;;;;;5.35;1.73;;;;;;;23.07;59.39;100808.81;2087099;28;20084;-76
2022/09/22 06:24:50;;;;;;;4.13;1.70;;;;;;;23.13;59.10;100814.00;2092938;28;20087;-76
2022/09/22 06:26:13;;;;;;;6.38;1.90;;;;;;;23.15;58.66;100809.44;2095447;28;20101;-77
2022/09/22 06:27:35;;;;;;;8.05;1.38;;;;;;;23.19;58.54;100811.97;2095415;28;20059;-77
2022/09/22 06:28:58;;;;;;;10.32;1.65;;;;;;;23.15;58.48;100806.75;2103717;28;20105;-77
2022/09/22 06:30:21;;;;;;;8.95;1.90;;;;;;;23.13;58.64;100811.28;2073411;28;20041;-77
2022/09/22 06:31:44;;;;;;;6.40;1.63;;;;;;;23.10;58.75;100814.13;2090697;28;20048;-77
2022/09/22 06:33:06;;;;;;;3.95;1.45;;;;;;;23.10;58.78;100814.13;2098046;28;20042;-77
2022/09/22 06:34:31;;;;;;;5.07;1.50;;;;;;;23.08;58.83;100824.06;2095289;28;20097;-77